Druzhba, Ukraine
Current Conditions -  °F | °C
As of 12:00 AM on Saturday 25 Oct 2014 (Local Time) from UUBP Reporting Station
Clear Clear  
Wind Chill: 11°   Ceiling: Unl
Heat Index: 19°   Visibility: 6mi
Dew Point: 14°   Wind: 7mph
Humidity: 80%   Direction: 20°NNE
Pressure: 30.59"   Gusts: NA
Location:  52.04°N, 33.94°E
Report Text: UUBP 242100Z 02003MPS CAVOK M07/M10 Q1036 NOSIG RMK QFE75934CLRD70
Loading
Personal Weather Stations






























Interactive Weather Map
Tropical Storm Tracking
New forecast layout! Learn more

10-Day Weather Forecast

Advertisements
Track Severe Weather on mobile